Latest Weather Observations for Kurnell

IDN60901

Issued at 7:12 am EDT Wednesday 4 March 2015 (issued every 10 minutes, with the page automatically refreshed every 10 minutes)

About weather observations | Map of Sydney area stations | Latest observations for Sydney area | Other Formats
Station Details ID: 066043 Name: KURNELL AWS Lat: -34.00 Lon: 151.21 Height: 4.0 m
Data from the previous 72 hours. | See also: Recent months for locations in New South Wales
Date/Time
EDT
Tmp

°C
App
Tmp
°C
Dew
Point
°C
Rel
Hum
%
Delta-T

°C
Wind Press
QNH
hPa
Press
MSL
hPa
Rain
since
9 am
mm
Dir
 
Spd
km/h
Gust
km/h
Spd
kts
Gust
kts
04/07:00am - - - - - SSW 19 26 10 14 - - -
04/06:30am - - - - - SSW 20 26 11 14 - - -
04/06:00am - - - - - SSW 22 28 12 15 - - -
04/05:30am - - - - - SSW 24 30 13 16 - - -
04/05:00am - - - - - SSW 22 32 12 17 - - -
04/04:30am - - - - - SSW 20 30 11 16 - - -
04/04:00am - - - - - SSW 20 26 11 14 - - -
04/03:30am - - - - - SSW 20 24 11 13 - - -
04/03:00am - - - - - SSW 20 28 11 15 - - -
04/02:30am - - - - - SSW 24 32 13 17 - - -
04/02:00am - - - - - SSW 19 22 10 12 - - -
04/01:30am - - - - - SSW 19 24 10 13 - - -
04/01:00am - - - - - SSW 17 22 9 12 - - -
04/12:30am - - - - - S 11 15 6 8 - - -
 
Date/Time
EDT
Tmp

°C
App
Tmp
°C
Dew
Point
°C
Rel
Hum
%
Delta-T

°C
Wind Press
QNH
hPa
Press
MSL
hPa
Rain
since
9 am
mm
Dir
 
Spd
km/h
Gust
km/h
Spd
kts
Gust
kts
03/11:30pm - - - - - SSE 9 9 5 5 - - -
03/11:00pm - - - - - SE 7 9 4 5 - - -
03/10:30pm - - - - - CALM 0 0 0 0 - - -
03/10:00pm - - - - - NE 6 9 3 5 - - -
03/09:30pm - - - - - ENE 7 9 4 5 - - -
03/09:00pm - - - - - ENE 9 11 5 6 - - -
03/08:30pm - - - - - ENE 13 17 7 9 - - -
03/08:00pm - - - - - ENE 15 19 8 10 - - -
03/07:30pm - - - - - NE 17 24 9 13 - - -
03/07:00pm - - - - - ENE 20 28 11 15 - - -
03/06:30pm - - - - - ENE 20 26 11 14 - - -
03/06:00pm - - - - - ENE 24 30 13 16 - - -
03/05:30pm - - - - - ENE 30 33 16 18 - - -
03/05:00pm - - - - - ENE 30 37 16 20 - - -
03/04:30pm - - - - - ENE 30 35 16 19 - - -
03/04:00pm - - - - - ENE 32 35 17 19 - - -
03/03:30pm - - - - - ENE 32 35 17 19 - - -
03/03:00pm - - - - - ENE 30 37 16 20 - - -
03/02:30pm - - - - - ENE 30 33 16 18 - - -
03/02:00pm - - - - - ENE 32 33 17 18 - - -
03/01:30pm - - - - - ENE 30 35 16 19 - - -
03/01:00pm - - - - - ENE 28 32 15 17 - - -
03/12:30pm - - - - - ENE 22 28 12 15 - - -
03/12:00pm - - - - - E 17 22 9 12 - - -
03/11:30am - - - - - N 13 17 7 9 - - -
03/11:00am - - - - - N 15 20 8 11 - - -
03/10:30am - - - - - NNW 13 17 7 9 - - -
03/10:00am - - - - - NW 17 19 9 10 - - -
03/09:30am - - - - - NW 19 22 10 12 - - -
03/09:00am - - - - - NNW 13 15 7 8 - - -
03/08:30am - - - - - NNW 13 15 7 8 - - -
03/08:00am - - - - - NW 13 15 7 8 - - -
03/07:30am - - - - - NW 13 17 7 9 - - -
03/07:00am - - - - - NW 15 17 8 9 - - -
03/06:30am - - - - - NNW 13 17 7 9 - - -
03/06:00am - - - - - N 9 11 5 6 - - -
03/05:30am - - - - - WNW 9 11 5 6 - - -
03/05:00am - - - - - WNW 11 13 6 7 - - -
03/04:30am - - - - - NW 13 15 7 8 - - -
03/04:00am - - - - - WNW 9 9 5 5 - - -
03/03:30am - - - - - NW 9 11 5 6 - - -
03/03:00am - - - - - NW 9 9 5 5 - - -
03/02:30am - - - - - NW 7 9 4 5 - - -
03/02:00am - - - - - W 7 11 4 6 - - -
03/01:30am - - - - - NW 11 13 6 7 - - -
03/01:00am - - - - - NW 13 15 7 8 - - -
03/12:30am - - - - - NW 11 13 6 7 - - -
03/12:00am - - - - - WNW 11 13 6 7 - - -
 
Date/Time
EDT
Tmp

°C
App
Tmp
°C
Dew
Point
°C
Rel
Hum
%
Delta-T

°C
Wind Press
QNH
hPa
Press
MSL
hPa
Rain
since
9 am
mm
Dir
 
Spd
km/h
Gust
km/h
Spd
kts
Gust
kts
02/11:30pm - - - - - NW 11 13 6 7 - - -
02/11:00pm - - - - - N 11 13 6 7 - - -
02/10:30pm - - - - - NNE 13 17 7 9 - - -
02/10:00pm - - - - - NE 15 19 8 10 - - -
02/09:30pm - - - - - NE 15 20 8 11 - - -
02/09:00pm - - - - - NE 13 17 7 9 - - -
02/08:30pm - - - - - ENE 13 17 7 9 - - -
02/08:00pm - - - - - ENE 13 17 7 9 - - -
02/07:30pm - - - - - E 19 22 10 12 - - -
02/07:00pm - - - - - E 13 17 7 9 - - -
02/06:30pm - - - - - E 17 20 9 11 - - -
02/06:00pm - - - - - E 13 19 7 10 - - -
02/05:30pm - - - - - E 15 19 8 10 - - -
02/05:00pm - - - - - ESE 15 20 8 11 - - -
02/04:30pm - - - - - E 17 22 9 12 - - -
02/04:00pm - - - - - ESE 15 20 8 11 - - -
02/03:30pm - - - - - SE 13 22 7 12 - - -
02/03:00pm - - - - - SSW 22 28 12 15 - - -
02/02:30pm - - - - - S 24 32 13 17 - - -
02/02:00pm - - - - - SSW 28 35 15 19 - - -
02/01:30pm - - - - - SSW 28 37 15 20 - - -
02/01:00pm - - - - - SSW 30 39 16 21 - - -
02/12:30pm - - - - - SSW 32 41 17 22 - - -
02/12:00pm - - - - - SSW 35 48 19 26 - - -
02/11:30am - - - - - SSW 35 43 19 23 - - -
02/11:00am - - - - - SSW 33 43 18 23 - - -
02/10:30am - - - - - SSW 33 43 18 23 - - -
02/10:00am - - - - - SSW 33 43 18 23 - - -
02/09:30am - - - - - SSW 35 44 19 24 - - -
02/09:00am - - - - - SSW 32 44 17 24 - - -
02/08:30am - - - - - SSW 33 43 18 23 - - -
02/08:00am - - - - - SSW 32 39 17 21 - - -
02/07:30am - - - - - SSW 33 44 18 24 - - -
02/07:00am - - - - - SSW 30 41 16 22 - - -
02/06:30am - - - - - SSW 26 37 14 20 - - -
02/06:00am - - - - - SW 22 30 12 16 - - -
02/05:30am - - - - - SW 24 32 13 17 - - -
02/05:00am - - - - - SW 22 32 12 17 - - -
02/04:30am - - - - - SW 28 37 15 20 - - -
02/04:00am - - - - - SW 26 35 14 19 - - -
02/03:30am - - - - - S 24 32 13 17 - - -
02/03:00am - - - - - S 24 33 13 18 - - -
02/02:30am - - - - - S 30 39 16 21 - - -
02/02:00am - - - - - S 30 48 16 26 - - -
02/01:59am - - - - - S 30 48 16 26 - - -
02/01:30am - - - - - S 30 39 16 21 - - -
02/01:00am - - - - - SSE 30 44 16 24 - - -
02/12:30am - - - - - S 35 50 19 27 - - -
02/12:00am - - - - - S 35 52 19 28 - - -
 
Date/Time
EDT
Tmp

°C
App
Tmp
°C
Dew
Point
°C
Rel
Hum
%
Delta-T

°C
Wind Press
QNH
hPa
Press
MSL
hPa
Rain
since
9 am
mm
Dir
 
Spd
km/h
Gust
km/h
Spd
kts
Gust
kts
01/11:50pm - - - - - S 39 57 21 31 - - -
01/11:30pm - - - - - S 37 52 20 28 - - -
01/11:16pm - - - - - S 35 56 19 30 - - -
01/11:00pm - - - - - S 37 50 20 27 - - -
01/10:46pm - - - - - S 41 61 22 33 - - -
01/10:30pm - - - - - S 41 56 22 30 - - -
01/10:00pm - - - - - S 43 61 23 33 - - -
01/09:38pm - - - - - S 39 61 21 33 - - -
01/09:30pm - - - - - S 39 54 21 29 - - -
01/09:27pm - - - - - S 39 57 21 31 - - -
01/09:00pm - - - - - S 41 56 22 30 - - -
01/08:33pm - - - - - S 44 67 24 36 - - -
01/08:30pm - - - - - S 43 59 23 32 - - -
01/08:08pm - - - - - S 44 70 24 38 - - -
01/08:00pm - - - - - S 43 59 23 32 - - -
01/07:30pm - - - - - S 46 65 25 35 - - -
01/07:00pm - - - - - S 48 78 26 42 - - -
01/06:30pm - - - - - S 43 65 23 35 - - -
01/06:00pm - - - - - S 44 63 24 34 - - -
01/05:49pm - - - - - S 44 63 24 34 - - -
01/05:30pm - - - - - S 48 65 26 35 - - -
01/05:27pm - - - - - S 50 72 27 39 - - -
01/05:23pm - - - - - SSW 54 78 29 42 - - -
01/05:00pm - - - - - SSW 63 83 34 45 - - -
01/04:47pm - - - - - SSW 54 74 29 40 - - -
01/04:43pm - - - - - SSW 50 72 27 39 - - -
01/04:31pm - - - - - SSW 28 61 15 33 - - -
01/04:30pm - - - - - SW 26 54 14 29 - - -
01/04:29pm - - - - - SW 24 54 13 29 - - -
01/04:21pm - - - - - SW 33 52 18 28 - - -
01/04:00pm - - - - - SSW 52 74 28 40 - - -
01/03:33pm - - - - - ESE 39 91 21 49 - - -
01/03:30pm - - - - - NE 30 63 16 34 - - -
01/03:29pm - - - - - NE 28 63 15 34 - - -
01/03:00pm - - - - - ENE 26 30 14 16 - - -
01/02:30pm - - - - - ENE 26 30 14 16 - - -
01/02:00pm - - - - - E 17 19 9 10 - - -
01/01:30pm - - - - - ENE 17 20 9 11 - - -
01/01:00pm - - - - - E 6 13 3 7 - - -
01/12:30pm - - - - - CALM 0 0 0 0 - - -
01/12:00pm - - - - - NW 7 9 4 5 - - -
01/11:30am - - - - - WNW 13 13 7 7 - - -
01/11:00am - - - - - NW 13 13 7 7 - - -
01/10:30am - - - - - NW 15 17 8 9 - - -
01/10:00am - - - - - NW 11 13 6 7 - - -
01/09:30am - - - - - WNW 13 15 7 8 - - -
01/09:00am - - - - - NW 11 15 6 8 - - -
01/08:30am - - - - - NNW 11 15 6 8 - - -
01/08:00am - - - - - NNW 15 19 8 10 - - -
01/07:30am - - - - - NW 15 17 8 9 - - -

Latest Capital City Observations: Canberra | Sydney | Melbourne | Brisbane | Adelaide | Perth | Hobart | Darwin

Other Formats:

Comma delimited format used in spreadsheet applications
http://www.bom.gov.au/fwo/IDN60901/IDN60901.95756.axf

JavaScript Object Notation format (JSON) in row-major order
http://www.bom.gov.au/fwo/IDN60901/IDN60901.95756.json